Terminal Aerodrome Forecast
Issued by NWS

Home | Current Version | Previous Version | Text Only | Print | Product List | Glossary On
Versions: 1 2 3 4 5 6 7 8 9 10 11 12 13 14 15 16 17 18 19 20 21 22 23 24 25 26 27 28 29
000
FTUS42 KCAE 231431 AAA
TAFDNL
TAF AMD
KDNL 231431Z 2315/2412 07007G16KT P6SM BKN040
     FM240000 VRB03KT P6SM SCT040
     FM241000 VRB03KT P6SM SCT010 BKN040=

USA.gov is the U.S. government's official web portal to all federal, state and local government web resources and services.